createdAt,value
2022-12-20T00:00:32.982Z,16.33
2022-12-20T00:01:33.020Z,16.33
2022-12-20T00:02:33.202Z,16.35
2022-12-20T00:03:32.978Z,16.36
2022-12-20T00:04:32.927Z,16.38
2022-12-20T00:05:32.942Z,16.38
2022-12-20T00:06:32.901Z,16.39
2022-12-20T00:07:33.077Z,16.38
2022-12-20T00:08:32.875Z,16.39
2022-12-20T00:09:33.242Z,16.38
2022-12-20T00:10:32.988Z,16.36
2022-12-20T00:11:32.841Z,16.36
2022-12-20T00:12:32.856Z,16.36
2022-12-20T00:13:33.420Z,16.38
2022-12-20T00:14:32.797Z,16.38
2022-12-20T00:15:32.811Z,16.38
2022-12-20T00:16:33.241Z,16.41
2022-12-20T00:17:32.830Z,16.41
2022-12-20T00:18:32.767Z,16.41
2022-12-20T00:19:32.766Z,16.41
2022-12-20T00:20:32.758Z,16.41
2022-12-20T00:21:32.885Z,16.42
2022-12-20T00:22:32.860Z,16.39
2022-12-20T00:23:32.719Z,16.39
2022-12-20T00:24:32.729Z,16.39
2022-12-20T00:25:32.689Z,16.41
2022-12-20T00:26:32.672Z,16.41
2022-12-20T00:27:32.986Z,16.41
2022-12-20T00:28:32.686Z,16.39
2022-12-20T00:29:32.645Z,16.41
2022-12-20T00:30:32.707Z,16.41
2022-12-20T00:31:32.802Z,16.41
2022-12-20T00:32:32.903Z,16.41
2022-12-20T00:33:32.634Z,16.39
2022-12-20T00:34:32.617Z,16.41
2022-12-20T00:35:32.579Z,16.41
2022-12-20T00:36:32.606Z,16.42
2022-12-20T00:37:32.678Z,16.41
2022-12-20T00:38:32.537Z,16.42
2022-12-20T00:39:32.548Z,16.42
2022-12-20T00:40:32.581Z,16.43
2022-12-20T00:41:32.549Z,16.42
2022-12-20T00:42:32.542Z,16.42
2022-12-20T00:43:32.509Z,16.41
2022-12-20T00:44:32.475Z,16.39
2022-12-20T00:45:32.705Z,16.39
2022-12-20T00:46:32.488Z,16.39
2022-12-20T00:47:33.136Z,16.39
2022-12-20T00:48:32.431Z,16.38
2022-12-20T00:49:32.418Z,16.36
2022-12-20T00:50:32.417Z,16.35
2022-12-20T00:51:32.404Z,16.35
2022-12-20T00:52:32.409Z,16.35
2022-12-20T00:53:32.384Z,16.32
2022-12-20T00:54:32.429Z,16.33
2022-12-20T00:55:32.359Z,16.32
2022-12-20T00:56:32.382Z,16.31
2022-12-20T00:57:32.353Z,16.31
2022-12-20T00:58:32.363Z,16.31
2022-12-20T00:59:32.501Z,16.31
2022-12-20T01:00:32.283Z,16.31
2022-12-20T01:01:32.471Z,16.31
2022-12-20T01:02:32.489Z,16.32
2022-12-20T01:03:32.386Z,16.29
2022-12-20T01:04:32.267Z,16.31
2022-12-20T01:05:32.375Z,16.33
2022-12-20T01:06:32.555Z,16.32
2022-12-20T01:07:32.222Z,16.32
2022-12-20T01:08:32.233Z,16.33
2022-12-20T01:09:32.380Z,16.33
2022-12-20T01:10:32.604Z,16.33
2022-12-20T01:11:32.207Z,16.35
2022-12-20T01:12:32.192Z,16.35
2022-12-20T01:13:32.201Z,16.36
2022-12-20T01:14:32.170Z,16.36
2022-12-20T01:15:32.140Z,16.38
2022-12-20T01:16:32.195Z,16.36
2022-12-20T01:17:32.162Z,16.39
2022-12-20T01:18:32.103Z,16.41
2022-12-20T01:19:32.094Z,16.41
2022-12-20T01:20:32.198Z,16.41
2022-12-20T01:21:32.551Z,16.41
2022-12-20T01:22:32.343Z,16.42
2022-12-20T01:23:32.197Z,16.41
2022-12-20T01:24:32.073Z,16.41
2022-12-20T01:25:32.793Z,16.39
2022-12-20T01:26:32.009Z,16.39
2022-12-20T01:27:32.008Z,16.39
2022-12-20T01:28:32.017Z,16.41
2022-12-20T01:29:31.987Z,16.42
2022-12-20T01:30:31.960Z,16.42
2022-12-20T01:31:32.347Z,16.43
2022-12-20T01:32:31.948Z,16.43
2022-12-20T01:33:31.937Z,16.43
2022-12-20T01:34:31.928Z,16.46
2022-12-20T01:35:31.933Z,16.47
2022-12-20T01:36:31.938Z,16.47
2022-12-20T01:37:31.938Z,16.50
2022-12-20T01:38:32.118Z,16.49
2022-12-20T01:39:31.872Z,16.50
2022-12-20T01:40:32.016Z,16.50
2022-12-20T01:41:31.861Z,16.49
2022-12-20T01:42:38.084Z,16.49
2022-12-20T01:43:31.841Z,16.49
2022-12-20T01:44:31.848Z,16.47
2022-12-20T01:45:31.848Z,16.47
2022-12-20T01:46:31.842Z,16.47
2022-12-20T01:47:31.799Z,16.46
2022-12-20T01:48:31.756Z,16.43
2022-12-20T01:49:31.788Z,16.43
2022-12-20T01:50:32.446Z,16.43
2022-12-20T01:51:31.748Z,16.42
2022-12-20T01:52:31.716Z,16.42
2022-12-20T01:53:31.727Z,16.41
2022-12-20T01:54:31.724Z,16.41
2022-12-20T01:55:31.698Z,16.39
2022-12-20T01:56:31.666Z,16.39
2022-12-20T01:57:31.724Z,16.38
2022-12-20T01:58:31.659Z,16.36
2022-12-20T01:59:31.674Z,16.36
2022-12-20T02:00:31.625Z,16.35
2022-12-20T02:01:31.815Z,16.36
2022-12-20T02:02:31.715Z,16.35
2022-12-20T02:03:31.688Z,16.35
2022-12-20T02:04:31.581Z,16.33
2022-12-20T02:05:31.597Z,16.32
2022-12-20T02:06:31.555Z,16.32
2022-12-20T02:07:31.578Z,16.31
2022-12-20T02:08:31.560Z,16.31
2022-12-20T02:09:31.549Z,16.31
2022-12-20T02:10:31.514Z,16.29
2022-12-20T02:11:31.526Z,16.28
2022-12-20T02:12:31.515Z,16.26
2022-12-20T02:13:31.492Z,16.24
2022-12-20T02:14:31.463Z,16.24
2022-12-20T02:15:31.478Z,16.23
2022-12-20T02:16:31.586Z,16.21
2022-12-20T02:17:31.464Z,16.21
2022-12-20T02:18:31.451Z,16.20
2022-12-20T02:19:31.436Z,16.17
2022-12-20T02:20:31.416Z,16.16
2022-12-20T02:21:31.426Z,16.16
2022-12-20T02:22:31.426Z,16.15
2022-12-20T02:23:31.398Z,16.15
2022-12-20T02:24:31.376Z,16.13
2022-12-20T02:25:31.349Z,16.13
2022-12-20T02:26:31.375Z,16.12
2022-12-20T02:27:31.356Z,16.10
2022-12-20T02:28:31.339Z,16.10
2022-12-20T02:29:31.323Z,16.10
2022-12-20T02:30:31.306Z,16.09
2022-12-20T02:31:31.332Z,16.08
2022-12-20T02:32:31.279Z,16.08
2022-12-20T02:33:31.328Z,16.05
2022-12-20T02:34:31.255Z,16.05
2022-12-20T02:35:31.291Z,16.04
2022-12-20T02:36:31.247Z,16.05
2022-12-20T02:37:31.220Z,16.04
2022-12-20T02:38:31.230Z,16.04
2022-12-20T02:39:31.199Z,16.04
2022-12-20T02:40:31.190Z,16.02
2022-12-20T02:41:31.204Z,16.02
2022-12-20T02:42:31.159Z,16.04
2022-12-20T02:43:31.193Z,16.02
2022-12-20T02:44:31.152Z,16.02
2022-12-20T02:45:31.151Z,16.01
2022-12-20T02:46:31.194Z,16.02
2022-12-20T02:47:31.108Z,16.02
2022-12-20T02:48:31.096Z,16.02
2022-12-20T02:49:31.114Z,16.04
2022-12-20T02:50:31.099Z,16.05
2022-12-20T02:51:31.089Z,16.05
2022-12-20T02:52:31.112Z,16.05
2022-12-20T02:53:31.056Z,16.08
2022-12-20T02:54:31.048Z,16.09
2022-12-20T02:55:31.015Z,16.10
2022-12-20T02:56:31.000Z,16.09
2022-12-20T02:57:31.011Z,16.12
2022-12-20T02:58:30.979Z,16.12
2022-12-20T02:59:30.985Z,16.13
2022-12-20T03:00:30.997Z,16.15
2022-12-20T03:01:31.056Z,16.16
2022-12-20T03:02:31.183Z,16.16
2022-12-20T03:03:30.966Z,16.17
2022-12-20T03:04:30.915Z,16.17
2022-12-20T03:05:32.600Z,16.17
2022-12-20T03:06:31.733Z,16.17
2022-12-20T03:07:30.925Z,16.20
2022-12-20T03:08:30.869Z,16.17
2022-12-20T03:09:30.856Z,16.17
2022-12-20T03:10:30.869Z,16.20
2022-12-20T03:11:30.859Z,16.17
2022-12-20T03:12:30.851Z,16.17
2022-12-20T03:13:30.839Z,16.16
2022-12-20T03:14:30.820Z,16.16
2022-12-20T03:15:30.838Z,16.17
2022-12-20T03:16:30.852Z,16.17
2022-12-20T03:17:30.781Z,16.17
2022-12-20T03:18:30.754Z,16.16
2022-12-20T03:19:30.770Z,16.15
2022-12-20T03:20:30.749Z,16.15
2022-12-20T03:21:30.735Z,16.13
2022-12-20T03:22:30.737Z,16.15
2022-12-20T03:23:30.740Z,16.13
2022-12-20T03:24:30.724Z,16.13
2022-12-20T03:25:30.705Z,16.13
2022-12-20T03:26:30.906Z,16.13
2022-12-20T03:27:30.690Z,16.13
2022-12-20T03:28:30.681Z,16.12
2022-12-20T03:29:30.635Z,16.12
2022-12-20T03:30:30.620Z,16.10
2022-12-20T03:31:30.664Z,16.10
2022-12-20T03:32:30.615Z,16.09
2022-12-20T03:33:30.604Z,16.08
2022-12-20T03:34:30.589Z,16.08
2022-12-20T03:35:30.614Z,16.08
2022-12-20T03:36:30.577Z,16.08
2022-12-20T03:37:30.577Z,16.08
2022-12-20T03:38:30.548Z,16.08
2022-12-20T03:39:30.521Z,16.08
2022-12-20T03:40:30.516Z,16.04
2022-12-20T03:41:30.526Z,16.04
2022-12-20T03:42:30.518Z,16.05
2022-12-20T03:43:30.506Z,16.04
2022-12-20T03:44:30.511Z,16.01
2022-12-20T03:45:30.494Z,16.02
2022-12-20T03:46:30.565Z,16.02
2022-12-20T03:47:30.446Z,16.02
2022-12-20T03:48:30.434Z,16.01
2022-12-20T03:49:30.446Z,16.00
2022-12-20T03:50:37.451Z,15.98
2022-12-20T03:51:30.379Z,15.98
2022-12-20T03:52:32.024Z,16.00
2022-12-20T03:53:30.376Z,15.98
2022-12-20T03:54:30.377Z,15.98
2022-12-20T03:55:30.363Z,16.00
2022-12-20T03:56:30.355Z,16.00
2022-12-20T03:57:30.343Z,16.00
2022-12-20T03:58:30.330Z,16.02
2022-12-20T03:59:30.321Z,16.02
2022-12-20T04:00:30.315Z,16.02
2022-12-20T04:01:30.490Z,16.04
2022-12-20T04:02:30.463Z,16.04
2022-12-20T04:03:30.385Z,16.05
2022-12-20T04:04:30.264Z,16.09
2022-12-20T04:05:30.240Z,16.08
2022-12-20T04:06:30.231Z,16.10
2022-12-20T04:07:30.206Z,16.09
2022-12-20T04:08:30.264Z,16.10
2022-12-20T04:09:30.189Z,16.10
2022-12-20T04:10:30.187Z,16.12
2022-12-20T04:11:30.161Z,16.10
2022-12-20T04:12:30.203Z,16.10
2022-12-20T04:13:30.157Z,16.12
2022-12-20T04:14:30.155Z,16.10
2022-12-20T04:15:30.226Z,16.10
2022-12-20T04:16:30.243Z,16.09
2022-12-20T04:17:30.109Z,16.10
2022-12-20T04:18:30.090Z,16.08
2022-12-20T04:19:30.101Z,16.09
2022-12-20T04:20:30.098Z,16.08
2022-12-20T04:21:30.091Z,16.08
2022-12-20T04:22:30.072Z,16.08
2022-12-20T04:23:30.063Z,16.05
2022-12-20T04:24:30.029Z,16.04
2022-12-20T04:25:30.041Z,16.04
2022-12-20T04:26:30.012Z,16.02
2022-12-20T04:27:30.043Z,16.02
2022-12-20T04:28:30.003Z,16.01
2022-12-20T04:29:29.980Z,16.01
2022-12-20T04:30:29.975Z,16.01
2022-12-20T04:31:29.998Z,16.00
2022-12-20T04:32:29.956Z,15.97
2022-12-20T04:33:29.932Z,15.97
2022-12-20T04:34:29.962Z,15.97
2022-12-20T04:35:29.908Z,15.95
2022-12-20T04:36:29.929Z,15.95
2022-12-20T04:37:29.885Z,15.94
2022-12-20T04:38:29.887Z,15.94
2022-12-20T04:39:29.878Z,15.92
2022-12-20T04:40:29.847Z,15.94
2022-12-20T04:41:29.836Z,15.92
2022-12-20T04:42:29.879Z,15.91
2022-12-20T04:43:29.932Z,15.92
2022-12-20T04:44:29.809Z,15.92
2022-12-20T04:45:29.804Z,15.92
2022-12-20T04:46:29.819Z,15.91
2022-12-20T04:47:29.765Z,15.91
2022-12-20T04:48:55.757Z,15.90
2022-12-20T04:49:30.750Z,15.91
2022-12-20T04:50:29.768Z,15.91
2022-12-20T04:51:29.741Z,15.90
2022-12-20T04:52:29.766Z,15.90
2022-12-20T04:53:29.717Z,15.90
2022-12-20T04:54:29.699Z,15.90
2022-12-20T04:55:29.696Z,15.90
2022-12-20T04:56:29.716Z,15.91
2022-12-20T04:57:29.658Z,15.91
2022-12-20T04:58:29.667Z,15.90
2022-12-20T04:59:29.649Z,15.90
2022-12-20T05:00:29.626Z,15.91
2022-12-20T05:01:29.725Z,15.91
2022-12-20T05:02:29.707Z,15.90
2022-12-20T05:03:29.669Z,15.91
2022-12-20T05:04:35.261Z,15.91
2022-12-20T05:05:30.586Z,15.91
2022-12-20T05:06:29.568Z,15.91
2022-12-20T05:07:29.575Z,15.92
2022-12-20T05:08:29.535Z,15.92
2022-12-20T05:09:29.557Z,15.92
2022-12-20T05:10:29.529Z,15.92
2022-12-20T05:11:29.512Z,15.94
2022-12-20T05:12:29.549Z,15.94
2022-12-20T05:13:29.535Z,15.95
2022-12-20T05:14:29.479Z,15.97
2022-12-20T05:15:29.464Z,15.97
2022-12-20T05:16:29.533Z,15.98
2022-12-20T05:17:29.467Z,15.98
2022-12-20T05:18:29.535Z,15.98
2022-12-20T05:19:29.414Z,16.00
2022-12-20T05:20:29.437Z,16.00
2022-12-20T05:21:29.401Z,16.00
2022-12-20T05:22:29.383Z,16.00
2022-12-20T05:23:29.409Z,16.01
2022-12-20T05:24:29.364Z,16.00
2022-12-20T05:25:29.341Z,16.00
2022-12-20T05:26:29.346Z,16.01
2022-12-20T05:27:29.353Z,16.01
2022-12-20T05:28:29.350Z,16.02
2022-12-20T05:29:29.318Z,16.01
2022-12-20T05:30:29.295Z,16.01
2022-12-20T05:31:29.341Z,16.02
2022-12-20T05:32:29.285Z,16.04
2022-12-20T05:33:34.025Z,16.04
2022-12-20T05:34:30.282Z,16.04
2022-12-20T05:35:29.240Z,16.04
2022-12-20T05:36:29.262Z,16.05
2022-12-20T05:37:29.211Z,16.08
2022-12-20T05:38:29.208Z,16.08
2022-12-20T05:39:29.323Z,16.08
2022-12-20T05:40:29.186Z,16.08
2022-12-20T05:41:29.179Z,16.08
2022-12-20T05:42:29.194Z,16.08
2022-12-20T05:43:29.169Z,16.09
2022-12-20T05:44:29.131Z,16.10
2022-12-20T05:45:29.162Z,16.10
2022-12-20T05:46:29.169Z,16.10
2022-12-20T05:47:29.118Z,16.09
2022-12-20T05:48:29.093Z,16.10
2022-12-20T05:49:29.085Z,16.10
2022-12-20T05:50:29.076Z,16.10
2022-12-20T05:51:29.050Z,16.09
2022-12-20T05:52:29.082Z,16.10
2022-12-20T05:53:29.046Z,16.10
2022-12-20T05:54:29.045Z,16.10
2022-12-20T05:55:29.003Z,16.10
2022-12-20T05:56:29.011Z,16.10
2022-12-20T05:57:28.988Z,16.10
2022-12-20T05:58:29.003Z,16.10
2022-12-20T05:59:28.973Z,16.10
2022-12-20T06:00:28.973Z,16.12
2022-12-20T06:01:29.012Z,16.10
2022-12-20T06:02:29.347Z,16.10
2022-12-20T06:03:29.043Z,16.10
2022-12-20T06:04:28.933Z,16.10
2022-12-20T06:05:28.898Z,16.10
2022-12-20T06:06:28.908Z,16.10
2022-12-20T06:07:28.957Z,16.12
2022-12-20T06:08:28.874Z,16.13
2022-12-20T06:09:28.863Z,16.12
2022-12-20T06:10:28.856Z,16.15
2022-12-20T06:11:30.397Z,16.15
2022-12-20T06:12:28.856Z,16.15
2022-12-20T06:13:28.828Z,16.15
2022-12-20T06:14:28.836Z,16.15
2022-12-20T06:15:28.801Z,16.15
2022-12-20T06:16:28.894Z,16.16
2022-12-20T06:17:28.771Z,16.15
2022-12-20T06:18:28.785Z,16.15
2022-12-20T06:19:28.757Z,16.15
2022-12-20T06:20:28.738Z,16.15
2022-12-20T06:21:28.725Z,16.15
2022-12-20T06:22:28.709Z,16.12
2022-12-20T06:23:28.706Z,16.13
2022-12-20T06:24:28.725Z,16.10
2022-12-20T06:25:28.690Z,16.13
2022-12-20T06:26:28.694Z,16.12
2022-12-20T06:27:28.670Z,16.12
2022-12-20T06:28:28.655Z,16.09
2022-12-20T06:29:28.642Z,16.10
2022-12-20T06:30:33.609Z,16.09
2022-12-20T06:31:29.682Z,16.10
2022-12-20T06:32:28.611Z,16.10
2022-12-20T06:33:28.606Z,16.10
2022-12-20T06:34:28.622Z,16.10
2022-12-20T06:35:28.571Z,16.09
2022-12-20T06:36:28.580Z,16.08
2022-12-20T06:37:28.549Z,16.08
2022-12-20T06:38:28.563Z,16.09
2022-12-20T06:39:28.520Z,16.08
2022-12-20T06:40:28.528Z,16.08
2022-12-20T06:41:28.510Z,16.09
2022-12-20T06:42:28.507Z,16.08
2022-12-20T06:43:28.488Z,16.04
2022-12-20T06:44:28.471Z,16.05
2022-12-20T06:45:28.552Z,16.05
2022-12-20T06:46:28.526Z,16.02
2022-12-20T06:47:28.444Z,16.04
2022-12-20T06:48:28.425Z,16.04
2022-12-20T06:49:28.415Z,16.05
2022-12-20T06:50:28.409Z,16.02
2022-12-20T06:51:28.406Z,16.04
2022-12-20T06:52:28.394Z,16.04
2022-12-20T06:53:28.394Z,16.01
2022-12-20T06:54:28.380Z,16.02
2022-12-20T06:55:28.354Z,16.01
2022-12-20T06:56:28.335Z,16.02
2022-12-20T06:57:28.337Z,16.01
2022-12-20T06:58:28.326Z,16.01
2022-12-20T06:59:28.300Z,16.01
2022-12-20T07:00:28.302Z,16.02
2022-12-20T07:01:28.338Z,16.02
2022-12-20T07:02:28.543Z,16.04
2022-12-20T07:03:28.516Z,16.02
2022-12-20T07:04:28.290Z,16.05
2022-12-20T07:05:28.241Z,16.08
2022-12-20T07:06:28.213Z,16.08
2022-12-20T07:07:28.215Z,16.10
2022-12-20T07:08:28.209Z,16.10
2022-12-20T07:09:28.194Z,16.10
2022-12-20T07:10:28.195Z,16.15
2022-12-20T07:11:28.162Z,16.16
2022-12-20T07:12:28.168Z,16.16
2022-12-20T07:13:28.140Z,16.20
2022-12-20T07:14:28.139Z,16.21
2022-12-20T07:15:28.134Z,16.20
2022-12-20T07:16:28.153Z,16.23
2022-12-20T07:17:28.115Z,16.24
2022-12-20T07:18:28.108Z,16.24
2022-12-20T07:19:28.102Z,16.26
2022-12-20T07:20:28.071Z,16.26
2022-12-20T07:21:28.054Z,16.28
2022-12-20T07:22:28.050Z,16.26
2022-12-20T07:23:28.049Z,16.28
2022-12-20T07:24:28.033Z,16.28
2022-12-20T07:25:28.021Z,16.28
2022-12-20T07:26:28.003Z,16.28
2022-12-20T07:27:28.005Z,16.28
2022-12-20T07:28:27.993Z,16.28
2022-12-20T07:29:27.989Z,16.28
2022-12-20T07:30:27.977Z,16.26
2022-12-20T07:31:28.032Z,16.26
2022-12-20T07:32:27.950Z,16.28
2022-12-20T07:33:27.909Z,16.26
2022-12-20T07:34:27.948Z,16.26
2022-12-20T07:35:27.920Z,16.24
2022-12-20T07:36:27.905Z,16.26
2022-12-20T07:37:27.867Z,16.23
2022-12-20T07:38:27.893Z,16.23
2022-12-20T07:39:27.863Z,16.26
2022-12-20T07:40:27.875Z,16.24
2022-12-20T07:41:27.852Z,16.21
2022-12-20T07:42:35.756Z,16.21
2022-12-20T07:43:28.817Z,16.21
2022-12-20T07:44:27.798Z,16.21
2022-12-20T07:45:27.893Z,16.23
2022-12-20T07:46:28.285Z,16.23
2022-12-20T07:47:27.763Z,16.21
2022-12-20T07:48:27.775Z,16.20
2022-12-20T07:49:27.754Z,16.21
2022-12-20T07:50:27.791Z,16.21
2022-12-20T07:51:27.739Z,16.17
2022-12-20T07:52:27.730Z,16.20
2022-12-20T07:53:27.723Z,16.20
2022-12-20T07:54:27.701Z,16.17
2022-12-20T07:55:27.701Z,16.16
2022-12-20T07:56:27.688Z,16.17
2022-12-20T07:57:27.665Z,16.16
2022-12-20T07:58:27.644Z,16.15
2022-12-20T07:59:27.642Z,16.15
2022-12-20T08:00:27.683Z,16.16
2022-12-20T08:01:27.813Z,16.15
2022-12-20T08:02:27.818Z,16.15
2022-12-20T08:03:27.723Z,16.13
2022-12-20T08:04:27.591Z,16.13
2022-12-20T08:05:27.557Z,16.13
2022-12-20T08:06:27.555Z,16.13
2022-12-20T08:07:27.552Z,16.13
2022-12-20T08:08:27.544Z,16.13
2022-12-20T08:09:27.517Z,16.13
2022-12-20T08:10:27.540Z,16.12
2022-12-20T08:11:27.525Z,16.15
2022-12-20T08:12:27.498Z,16.15
2022-12-20T08:13:27.489Z,16.15
2022-12-20T08:14:27.491Z,16.16
2022-12-20T08:15:27.467Z,16.15
2022-12-20T08:16:27.528Z,16.15
2022-12-20T08:17:27.478Z,16.13
2022-12-20T08:18:27.428Z,16.15
2022-12-20T08:19:32.174Z,16.15
2022-12-20T08:20:28.398Z,16.13
2022-12-20T08:21:27.402Z,16.13
2022-12-20T08:22:27.393Z,16.13
2022-12-20T08:23:27.386Z,16.13
2022-12-20T08:24:27.371Z,16.12
2022-12-20T08:25:27.348Z,16.12
2022-12-20T08:26:27.323Z,16.12
2022-12-20T08:27:27.370Z,16.12
2022-12-20T08:28:27.318Z,16.10
2022-12-20T08:29:27.326Z,16.12
2022-12-20T08:30:27.289Z,16.10
2022-12-20T08:31:27.319Z,16.12
2022-12-20T08:32:27.294Z,16.12
2022-12-20T08:33:27.268Z,16.12
2022-12-20T08:34:27.263Z,16.12
2022-12-20T08:35:27.256Z,16.12
2022-12-20T08:36:27.232Z,16.12
2022-12-20T08:37:27.243Z,16.12
2022-12-20T08:38:27.197Z,16.12
2022-12-20T08:39:27.222Z,16.12
2022-12-20T08:40:27.168Z,16.12
2022-12-20T08:41:27.183Z,16.12
2022-12-20T08:42:27.162Z,16.12
2022-12-20T08:43:27.223Z,16.12
2022-12-20T08:44:27.151Z,16.12
2022-12-20T08:45:27.135Z,16.13
2022-12-20T08:46:27.175Z,16.13
2022-12-20T08:47:27.121Z,16.13
2022-12-20T08:48:27.095Z,16.13
2022-12-20T08:49:27.082Z,16.15
2022-12-20T08:50:27.078Z,16.15
2022-12-20T08:51:27.193Z,16.15
2022-12-20T08:52:27.096Z,16.17
2022-12-20T08:53:27.031Z,16.17
2022-12-20T08:54:27.033Z,16.16
2022-12-20T08:55:29.575Z,16.16
2022-12-20T08:56:27.021Z,16.16
2022-12-20T08:57:26.976Z,16.16
2022-12-20T08:58:26.995Z,16.17
2022-12-20T08:59:26.972Z,16.17
2022-12-20T09:00:26.994Z,16.20
2022-12-20T09:01:27.106Z,16.20
2022-12-20T09:02:27.124Z,16.20
2022-12-20T09:03:26.979Z,16.23
2022-12-20T09:04:26.901Z,16.23
2022-12-20T09:05:26.897Z,16.23
2022-12-20T09:06:26.900Z,16.24
2022-12-20T09:07:26.886Z,16.24
2022-12-20T09:08:26.862Z,16.28
2022-12-20T09:09:26.862Z,16.26
2022-12-20T09:10:26.839Z,16.28
2022-12-20T09:11:26.874Z,16.29
2022-12-20T09:12:26.862Z,16.29
2022-12-20T09:13:26.824Z,16.29
2022-12-20T09:14:26.803Z,16.29
2022-12-20T09:15:27.197Z,16.29
2022-12-20T09:16:26.832Z,16.29
2022-12-20T09:17:26.777Z,16.29
2022-12-20T09:18:26.769Z,16.28
2022-12-20T09:19:26.792Z,16.28
2022-12-20T09:20:26.741Z,16.28
2022-12-20T09:21:26.731Z,16.28
2022-12-20T09:22:26.748Z,16.28
2022-12-20T09:23:26.719Z,16.26
2022-12-20T09:24:26.693Z,16.28
2022-12-20T09:25:26.666Z,16.28
2022-12-20T09:26:26.657Z,16.28
2022-12-20T09:27:26.684Z,16.29
2022-12-20T09:28:26.634Z,16.29
2022-12-20T09:29:32.197Z,16.29
2022-12-20T09:30:27.631Z,16.28
2022-12-20T09:31:26.657Z,16.29
2022-12-20T09:32:26.648Z,16.31
2022-12-20T09:33:26.586Z,16.32
2022-12-20T09:34:26.585Z,16.33
2022-12-20T09:35:26.568Z,16.31
2022-12-20T09:36:26.561Z,16.32
2022-12-20T09:37:26.857Z,16.32
2022-12-20T09:38:26.551Z,16.33
2022-12-20T09:39:26.532Z,16.32
2022-12-20T09:40:26.508Z,16.33
2022-12-20T09:41:26.519Z,16.35
2022-12-20T09:42:26.520Z,16.35
2022-12-20T09:43:26.486Z,16.36
2022-12-20T09:44:26.475Z,16.35
2022-12-20T09:45:26.475Z,16.36
2022-12-20T09:46:26.524Z,16.36
2022-12-20T09:47:26.452Z,16.38
2022-12-20T09:48:26.423Z,16.36
2022-12-20T09:49:26.421Z,16.36
2022-12-20T09:50:26.422Z,16.38
2022-12-20T09:51:26.392Z,16.36
2022-12-20T09:52:26.381Z,16.36
2022-12-20T09:53:26.378Z,16.38
2022-12-20T09:54:26.348Z,16.36
2022-12-20T09:55:26.374Z,16.36
2022-12-20T09:56:26.324Z,16.36
2022-12-20T09:57:26.326Z,16.36
2022-12-20T09:58:26.329Z,16.33
2022-12-20T09:59:26.320Z,16.35
2022-12-20T10:00:26.378Z,16.35
2022-12-20T10:01:28.883Z,16.33
2022-12-20T10:02:56.652Z,16.33
2022-12-20T10:03:27.596Z,16.33
2022-12-20T10:04:26.464Z,16.33
2022-12-20T10:05:26.351Z,16.32
2022-12-20T10:06:26.227Z,16.33
2022-12-20T10:07:26.229Z,16.33
2022-12-20T10:08:26.244Z,16.33
2022-12-20T10:09:26.208Z,16.32
2022-12-20T10:10:26.176Z,16.31
2022-12-20T10:11:26.158Z,16.33
2022-12-20T10:12:26.161Z,16.35
2022-12-20T10:13:26.226Z,16.33
2022-12-20T10:14:26.132Z,16.35
2022-12-20T10:15:26.130Z,16.33
2022-12-20T10:16:26.174Z,16.33
2022-12-20T10:17:30.616Z,16.35
2022-12-20T10:18:27.127Z,16.35
2022-12-20T10:19:26.091Z,16.35
2022-12-20T10:20:26.091Z,16.35
2022-12-20T10:21:26.073Z,16.36
2022-12-20T10:22:26.061Z,16.38
2022-12-20T10:23:32.687Z,16.39
2022-12-20T10:24:27.043Z,16.41
2022-12-20T10:25:26.213Z,16.41
2022-12-20T10:26:27.229Z,16.41
2022-12-20T10:27:26.068Z,16.42
2022-12-20T10:28:26.016Z,16.43
2022-12-20T10:29:25.967Z,16.46
2022-12-20T10:30:25.952Z,16.47
2022-12-20T10:31:26.014Z,16.47
2022-12-20T10:32:26.895Z,16.49
2022-12-20T10:33:26.034Z,16.50
2022-12-20T10:34:28.798Z,16.51
2022-12-20T10:35:26.914Z,16.53
2022-12-20T10:36:25.885Z,16.53
2022-12-20T10:37:25.896Z,16.54
2022-12-20T10:38:25.860Z,16.54
2022-12-20T10:39:25.859Z,16.56
2022-12-20T10:40:39.580Z,16.56
2022-12-20T10:41:26.858Z,16.56
2022-12-20T10:42:25.853Z,16.57
2022-12-20T10:43:25.837Z,16.56
2022-12-20T10:44:25.806Z,16.57
2022-12-20T10:45:27.665Z,16.57
2022-12-20T10:46:26.941Z,16.57
2022-12-20T10:47:25.767Z,16.58
2022-12-20T10:48:25.748Z,16.58
2022-12-20T10:49:25.751Z,16.58
2022-12-20T10:50:25.769Z,16.60
2022-12-20T10:51:25.725Z,16.60
2022-12-20T10:52:25.717Z,16.61
2022-12-20T10:53:25.709Z,16.61
2022-12-20T10:54:25.711Z,16.60
2022-12-20T10:55:25.692Z,16.61
2022-12-20T10:56:25.672Z,16.61
2022-12-20T10:57:25.669Z,16.64
2022-12-20T10:58:25.667Z,16.65
2022-12-20T10:59:25.616Z,16.68
2022-12-20T11:00:25.612Z,16.69
2022-12-20T11:01:25.694Z,16.69
2022-12-20T11:02:25.802Z,16.74
2022-12-20T11:03:25.796Z,16.74
2022-12-20T11:04:25.627Z,16.74
2022-12-20T11:05:25.672Z,16.75
2022-12-20T11:06:25.542Z,16.75
2022-12-20T11:07:25.552Z,16.76
2022-12-20T11:08:49.209Z,16.76
2022-12-20T11:09:26.524Z,16.76
2022-12-20T11:10:25.530Z,16.78
2022-12-20T11:11:25.507Z,16.78
2022-12-20T11:12:25.478Z,16.79
2022-12-20T11:13:25.474Z,16.79
2022-12-20T11:14:25.486Z,16.79
2022-12-20T11:15:33.980Z,16.79
2022-12-20T11:16:26.529Z,16.79
2022-12-20T11:17:25.503Z,16.83
2022-12-20T11:18:25.429Z,16.83
2022-12-20T11:19:25.410Z,16.81
2022-12-20T11:20:25.396Z,16.81
2022-12-20T11:21:28.378Z,16.79
2022-12-20T11:22:25.385Z,16.79
2022-12-20T11:23:25.353Z,16.79
2022-12-20T11:24:25.366Z,16.79
2022-12-20T11:25:25.347Z,16.79
2022-12-20T11:26:25.324Z,16.78
2022-12-20T11:27:25.315Z,16.78
2022-12-20T11:28:25.532Z,16.79
2022-12-20T11:29:25.298Z,16.78
2022-12-20T11:30:25.343Z,16.78
2022-12-20T11:31:25.340Z,16.78
2022-12-20T11:32:25.252Z,16.76
2022-12-20T11:33:25.340Z,16.76
2022-12-20T11:34:25.239Z,16.78
2022-12-20T11:35:25.243Z,16.76
2022-12-20T11:36:25.217Z,16.76
2022-12-20T11:37:25.205Z,16.76
2022-12-20T11:38:25.201Z,16.76
2022-12-20T11:39:25.207Z,16.76
2022-12-20T11:40:25.182Z,16.76
2022-12-20T11:41:25.161Z,16.76
2022-12-20T11:42:25.227Z,16.76
2022-12-20T11:43:25.228Z,16.76
2022-12-20T11:44:26.616Z,16.76
2022-12-20T11:45:25.121Z,16.76
2022-12-20T11:46:25.142Z,16.75
2022-12-20T11:47:25.100Z,16.75
2022-12-20T11:48:25.155Z,16.76
2022-12-20T11:49:25.097Z,16.76
2022-12-20T11:50:25.228Z,16.75
2022-12-20T11:51:26.898Z,16.75
2022-12-20T11:52:25.080Z,16.74
2022-12-20T11:53:25.059Z,16.71
2022-12-20T11:54:26.632Z,16.71
2022-12-20T11:55:25.403Z,16.68
2022-12-20T11:56:25.014Z,16.68
2022-12-20T11:57:24.979Z,16.66
2022-12-20T11:58:25.015Z,16.68
2022-12-20T11:59:24.991Z,16.65
2022-12-20T12:00:25.015Z,16.65
2022-12-20T12:01:24.979Z,16.64
2022-12-20T12:02:25.071Z,16.60
2022-12-20T12:03:25.033Z,16.58
2022-12-20T12:04:24.901Z,16.57
2022-12-20T12:05:24.979Z,16.57
2022-12-20T12:06:24.904Z,16.56
2022-12-20T12:07:24.869Z,16.53
2022-12-20T12:08:24.864Z,16.54
2022-12-20T12:09:24.885Z,16.51
2022-12-20T12:10:24.846Z,16.51
2022-12-20T12:12:04.768Z,16.50
2022-12-20T12:12:25.806Z,16.47
2022-12-20T12:13:24.839Z,16.49
2022-12-20T12:14:24.811Z,16.49
2022-12-20T12:15:24.768Z,16.47
2022-12-20T12:16:24.794Z,16.47
2022-12-20T12:17:24.765Z,16.46
2022-12-20T12:18:24.750Z,16.46
2022-12-20T12:19:24.749Z,16.46
2022-12-20T12:20:24.742Z,16.43
2022-12-20T12:21:24.723Z,16.41
2022-12-20T12:22:24.820Z,16.41
2022-12-20T12:23:25.192Z,16.41
2022-12-20T12:24:24.877Z,16.41
2022-12-20T12:25:24.780Z,16.39
2022-12-20T12:26:25.042Z,16.38
2022-12-20T12:27:24.749Z,16.35
2022-12-20T12:28:24.688Z,16.36
2022-12-20T12:29:24.674Z,16.35
2022-12-20T12:30:24.648Z,16.35
2022-12-20T12:31:24.676Z,16.33
2022-12-20T12:32:24.588Z,16.35
2022-12-20T12:33:25.684Z,16.35
2022-12-20T12:34:24.638Z,16.36
2022-12-20T12:35:24.599Z,16.38
2022-12-20T12:36:24.561Z,16.39
2022-12-20T12:37:24.575Z,16.42
2022-12-20T12:38:24.539Z,16.46
2022-12-20T12:39:24.993Z,16.46
2022-12-20T12:40:24.527Z,16.47
2022-12-20T12:41:24.493Z,16.49
2022-12-20T12:42:24.520Z,16.49
2022-12-20T12:43:24.467Z,16.51
2022-12-20T12:44:24.480Z,16.51
2022-12-20T12:45:24.473Z,16.54
2022-12-20T12:46:24.637Z,16.56
2022-12-20T12:47:24.440Z,16.58
2022-12-20T12:48:24.431Z,16.60
2022-12-20T12:49:24.430Z,16.60
2022-12-20T12:50:24.461Z,16.60
2022-12-20T12:51:24.396Z,16.60
2022-12-20T12:52:24.443Z,16.61